sensor_id;sensor_type;location;lat;lon;timestamp;pressure;altitude;pressure_sealevel;temperature;humidity
55010;BME280;40903;51.638;7.528;2023-05-23T00:00:41;100982.38;;;15.00;100.00
55010;BME280;40903;51.638;7.528;2023-05-23T00:03:06;100979.19;;;15.07;100.00
55010;BME280;40903;51.638;7.528;2023-05-23T00:05:32;100988.13;;;15.12;100.00
55010;BME280;40903;51.638;7.528;2023-05-23T00:07:59;100987.47;;;15.15;100.00
55010;BME280;40903;51.638;7.528;2023-05-23T00:10:25;100982.50;;;15.17;100.00
55010;BME280;40903;51.638;7.528;2023-05-23T00:12:50;100992.03;;;15.20;100.00
55010;BME280;40903;51.638;7.528;2023-05-23T00:15:16;100991.94;;;15.25;100.00
55010;BME280;40903;51.638;7.528;2023-05-23T00:17:42;100987.72;;;15.27;100.00
55010;BME280;40903;51.638;7.528;2023-05-23T00:20:09;100994.34;;;15.26;100.00
55010;BME280;40903;51.638;7.528;2023-05-23T00:22:36;100996.19;;;15.31;100.00
55010;BME280;40903;51.638;7.528;2023-05-23T00:25:04;101004.13;;;15.32;100.00
55010;BME280;40903;51.638;7.528;2023-05-23T00:27:30;101012.03;;;15.34;100.00
55010;BME280;40903;51.638;7.528;2023-05-23T00:29:55;101010.91;;;15.35;100.00
55010;BME280;40903;51.638;7.528;2023-05-23T00:32:21;101006.88;;;15.32;100.00
55010;BME280;40903;51.638;7.528;2023-05-23T00:34:46;101019.16;;;15.35;100.00
55010;BME280;40903;51.638;7.528;2023-05-23T00:37:12;101010.13;;;15.34;100.00
55010;BME280;40903;51.638;7.528;2023-05-23T00:39:37;101027.72;;;15.33;100.00
55010;BME280;40903;51.638;7.528;2023-05-23T00:42:04;101022.84;;;15.30;100.00
55010;BME280;40903;51.638;7.528;2023-05-23T00:44:30;101025.41;;;15.27;100.00
55010;BME280;40903;51.638;7.528;2023-05-23T00:46:56;101020.50;;;15.24;100.00
55010;BME280;40903;51.638;7.528;2023-05-23T00:49:22;101032.13;;;15.21;100.00
55010;BME280;40903;51.638;7.528;2023-05-23T00:51:48;101025.16;;;15.15;100.00
55010;BME280;40903;51.638;7.528;2023-05-23T00:54:17;101030.78;;;15.10;100.00
55010;BME280;40903;51.638;7.528;2023-05-23T00:56:45;101037.75;;;15.16;100.00
55010;BME280;40903;51.638;7.528;2023-05-23T00:59:11;101038.69;;;15.11;100.00
55010;BME280;40903;51.638;7.528;2023-05-23T01:01:37;101035.44;;;15.09;100.00
55010;BME280;40903;51.638;7.528;2023-05-23T01:04:02;101043.38;;;15.11;100.00
55010;BME280;40903;51.638;7.528;2023-05-23T01:06:29;101045.75;;;15.04;100.00
55010;BME280;40903;51.638;7.528;2023-05-23T01:08:55;101042.00;;;15.00;100.00
55010;BME280;40903;51.638;7.528;2023-05-23T01:17:37;101038.91;;;15.01;100.00
55010;BME280;40903;51.638;7.528;2023-05-23T01:20:11;101044.25;;;14.98;100.00
55010;BME280;40903;51.638;7.528;2023-05-23T01:25:27;101047.78;;;14.98;100.00
55010;BME280;40903;51.638;7.528;2023-05-23T01:28:00;101032.13;;;14.99;100.00
55010;BME280;40903;51.638;7.528;2023-05-23T01:30:27;101044.13;;;15.03;100.00
55010;BME280;40903;51.638;7.528;2023-05-23T01:32:55;101042.69;;;15.05;100.00
55010;BME280;40903;51.638;7.528;2023-05-23T01:35:24;101035.25;;;15.06;100.00
55010;BME280;40903;51.638;7.528;2023-05-23T01:37:53;101049.81;;;15.06;100.00
55010;BME280;40903;51.638;7.528;2023-05-23T01:40:19;101040.25;;;15.04;100.00
55010;BME280;40903;51.638;7.528;2023-05-23T01:42:45;101045.75;;;15.04;100.00
55010;BME280;40903;51.638;7.528;2023-05-23T01:45:12;101041.88;;;15.05;100.00
55010;BME280;40903;51.638;7.528;2023-05-23T01:47:39;101045.44;;;15.05;100.00
55010;BME280;40903;51.638;7.528;2023-05-23T01:50:06;101045.44;;;15.05;100.00
55010;BME280;40903;51.638;7.528;2023-05-23T01:52:32;101047.84;;;15.07;100.00
55010;BME280;40903;51.638;7.528;2023-05-23T01:54:58;101054.97;;;15.08;100.00
55010;BME280;40903;51.638;7.528;2023-05-23T01:57:25;101057.72;;;15.08;100.00
55010;BME280;40903;51.638;7.528;2023-05-23T01:59:55;101053.06;;;15.08;100.00
55010;BME280;40903;51.638;7.528;2023-05-23T02:02:20;101051.09;;;15.09;100.00
55010;BME280;40903;51.638;7.528;2023-05-23T02:04:48;101055.66;;;15.13;100.00
55010;BME280;40903;51.638;7.528;2023-05-23T02:07:13;101055.38;;;15.15;100.00
55010;BME280;40903;51.638;7.528;2023-05-23T02:09:39;101046.78;;;15.16;100.00
55010;BME280;40903;51.638;7.528;2023-05-23T02:12:04;101041.19;;;15.21;100.00
55010;BME280;40903;51.638;7.528;2023-05-23T02:14:30;101055.72;;;15.22;100.00
55010;BME280;40903;51.638;7.528;2023-05-23T02:16:55;101062.34;;;15.21;100.00
55010;BME280;40903;51.638;7.528;2023-05-23T02:19:20;101059.09;;;15.19;100.00
55010;BME280;40903;51.638;7.528;2023-05-23T02:21:45;101067.03;;;15.20;100.00
55010;BME280;40903;51.638;7.528;2023-05-23T02:24:11;101061.56;;;15.20;100.00
55010;BME280;40903;51.638;7.528;2023-05-23T02:26:36;101063.47;;;15.20;100.00
55010;BME280;40903;51.638;7.528;2023-05-23T02:29:02;101061.22;;;15.22;100.00
55010;BME280;40903;51.638;7.528;2023-05-23T02:31:27;101066.41;;;15.23;100.00
55010;BME280;40903;51.638;7.528;2023-05-23T02:33:53;101059.28;;;15.22;100.00
55010;BME280;40903;51.638;7.528;2023-05-23T02:36:18;101065.59;;;15.23;100.00
55010;BME280;40903;51.638;7.528;2023-05-23T02:38:44;101063.38;;;15.25;100.00
55010;BME280;40903;51.638;7.528;2023-05-23T02:41:09;101071.59;;;15.25;100.00
55010;BME280;40903;51.638;7.528;2023-05-23T02:43:35;101062.25;;;15.26;100.00
55010;BME280;40903;51.638;7.528;2023-05-23T02:46:00;101068.53;;;15.26;100.00
55010;BME280;40903;51.638;7.528;2023-05-23T02:48:26;101072.09;;;15.27;100.00
55010;BME280;40903;51.638;7.528;2023-05-23T02:50:51;101069.34;;;15.27;100.00
55010;BME280;40903;51.638;7.528;2023-05-23T02:53:16;101070.47;;;15.26;100.00
55010;BME280;40903;51.638;7.528;2023-05-23T02:55:42;101076.78;;;15.26;100.00
55010;BME280;40903;51.638;7.528;2023-05-23T02:58:07;101067.09;;;15.29;100.00
55010;BME280;40903;51.638;7.528;2023-05-23T03:00:33;101073.44;;;15.29;100.00
55010;BME280;40903;51.638;7.528;2023-05-23T03:02:58;101070.69;;;15.29;100.00
55010;BME280;40903;51.638;7.528;2023-05-23T03:05:24;101074.25;;;15.30;100.00
55010;BME280;40903;51.638;7.528;2023-05-23T03:07:49;101071.78;;;15.28;100.00
55010;BME280;40903;51.638;7.528;2023-05-23T03:10:17;101066.59;;;15.27;100.00
55010;BME280;40903;51.638;7.528;2023-05-23T03:12:42;101068.16;;;15.19;100.00
55010;BME280;40903;51.638;7.528;2023-05-23T03:15:08;101072.84;;;15.19;100.00
55010;BME280;40903;51.638;7.528;2023-05-23T03:17:34;101071.22;;;15.18;100.00
55010;BME280;40903;51.638;7.528;2023-05-23T03:19:59;101082.00;;;15.14;100.00
55010;BME280;40903;51.638;7.528;2023-05-23T03:22:25;101075.72;;;15.14;100.00
55010;BME280;40903;51.638;7.528;2023-05-23T03:24:50;101082.00;;;15.14;100.00
55010;BME280;40903;51.638;7.528;2023-05-23T03:27:16;101076.09;;;15.21;100.00
55010;BME280;40903;51.638;7.528;2023-05-23T03:29:41;101078.34;;;15.19;100.00
55010;BME280;40903;51.638;7.528;2023-05-23T03:32:06;101083.69;;;15.24;100.00
55010;BME280;40903;51.638;7.528;2023-05-23T03:34:32;101088.69;;;15.22;100.00
55010;BME280;40903;51.638;7.528;2023-05-23T03:36:58;101082.69;;;15.20;100.00
55010;BME280;40903;51.638;7.528;2023-05-23T03:39:24;101095.31;;;15.21;100.00
55010;BME280;40903;51.638;7.528;2023-05-23T03:41:49;101090.94;;;15.20;100.00
55010;BME280;40903;51.638;7.528;2023-05-23T03:44:15;101092.75;;;15.24;100.00
55010;BME280;40903;51.638;7.528;2023-05-23T03:46:40;101085.44;;;15.20;100.00
55010;BME280;40903;51.638;7.528;2023-05-23T03:49:06;101095.44;;;15.16;100.00
55010;BME280;40903;51.638;7.528;2023-05-23T03:51:32;101095.56;;;15.11;100.00
55010;BME280;40903;51.638;7.528;2023-05-23T03:53:58;101101.06;;;15.11;100.00
55010;BME280;40903;51.638;7.528;2023-05-23T03:56:24;101109.91;;;15.08;100.00
55010;BME280;40903;51.638;7.528;2023-05-23T03:58:50;101107.28;;;15.03;100.00
55010;BME280;40903;51.638;7.528;2023-05-23T04:01:15;101117.28;;;14.99;100.00
55010;BME280;40903;51.638;7.528;2023-05-23T04:03:41;101119.19;;;14.98;100.00
55010;BME280;40903;51.638;7.528;2023-05-23T04:06:06;101123.41;;;14.96;100.00
55010;BME280;40903;51.638;7.528;2023-05-23T04:08:31;101119.53;;;14.97;100.00
55010;BME280;40903;51.638;7.528;2023-05-23T04:10:59;101130.50;;;14.97;100.00
55010;BME280;40903;51.638;7.528;2023-05-23T04:13:26;101130.59;;;14.92;100.00
55010;BME280;40903;51.638;7.528;2023-05-23T04:15:51;101119.44;;;14.88;100.00
55010;BME280;40903;51.638;7.528;2023-05-23T04:18:17;101122.50;;;14.87;100.00
55010;BME280;40903;51.638;7.528;2023-05-23T04:20:42;101123.31;;;14.87;100.00
55010;BME280;40903;51.638;7.528;2023-05-23T04:23:07;101119.44;;;14.88;100.00
55010;BME280;40903;51.638;7.528;2023-05-23T04:25:33;101118.13;;;14.86;100.00
55010;BME280;40903;51.638;7.528;2023-05-23T04:27:59;101122.78;;;14.85;100.00
55010;BME280;40903;51.638;7.528;2023-05-23T04:30:25;101125.25;;;14.87;100.00
55010;BME280;40903;51.638;7.528;2023-05-23T04:32:50;101124.13;;;14.88;100.00
55010;BME280;40903;51.638;7.528;2023-05-23T04:35:16;101129.81;;;14.91;100.00
55010;BME280;40903;51.638;7.528;2023-05-23T04:37:41;101129.81;;;14.91;100.00
55010;BME280;40903;51.638;7.528;2023-05-23T04:40:07;101132.75;;;14.95;100.00
55010;BME280;40903;51.638;7.528;2023-05-23T04:42:33;101140.66;;;14.96;100.00
55010;BME280;40903;51.638;7.528;2023-05-23T04:45:01;101137.13;;;14.96;100.00
55010;BME280;40903;51.638;7.528;2023-05-23T04:47:28;101139.34;;;14.94;100.00
55010;BME280;40903;51.638;7.528;2023-05-23T04:49:55;101141.00;;;14.95;100.00
55010;BME280;40903;51.638;7.528;2023-05-23T04:52:21;101141.50;;;14.97;100.00
55010;BME280;40903;51.638;7.528;2023-05-23T04:54:47;101153.06;;;14.94;100.00
55010;BME280;40903;51.638;7.528;2023-05-23T04:57:12;101151.78;;;14.91;100.00
55010;BME280;40903;51.638;7.528;2023-05-23T04:59:38;101151.44;;;14.93;100.00
55010;BME280;40903;51.638;7.528;2023-05-23T05:02:03;101144.34;;;14.92;100.00
55010;BME280;40903;51.638;7.528;2023-05-23T05:04:30;101147.59;;;14.94;100.00
55010;BME280;40903;51.638;7.528;2023-05-23T05:06:55;101150.03;;;14.95;100.00
55010;BME280;40903;51.638;7.528;2023-05-23T05:09:22;101151.66;;;14.96;100.00
55010;BME280;40903;51.638;7.528;2023-05-23T05:11:47;101157.97;;;14.97;100.00
55010;BME280;40903;51.638;7.528;2023-05-23T05:14:13;101168.97;;;14.97;100.00
55010;BME280;40903;51.638;7.528;2023-05-23T05:16:38;101174.34;;;15.02;100.00
55010;BME280;40903;51.638;7.528;2023-05-23T05:19:06;101169.34;;;15.04;100.00
55010;BME280;40903;51.638;7.528;2023-05-23T05:21:32;101175.66;;;15.04;100.00
55010;BME280;40903;51.638;7.528;2023-05-23T05:23:57;101175.34;;;15.06;100.00
55010;BME280;40903;51.638;7.528;2023-05-23T05:26:24;101182.16;;;15.08;100.00
55010;BME280;40903;51.638;7.528;2023-05-23T05:28:49;101177.28;;;15.05;100.00
55010;BME280;40903;51.638;7.528;2023-05-23T05:31:15;101178.50;;;14.99;100.00
55010;BME280;40903;51.638;7.528;2023-05-23T05:33:41;101185.72;;;14.95;100.00
55010;BME280;40903;51.638;7.528;2023-05-23T05:36:10;101188.78;;;14.94;100.00
55010;BME280;40903;51.638;7.528;2023-05-23T05:38:36;101179.75;;;14.93;100.00
55010;BME280;40903;51.638;7.528;2023-05-23T05:41:01;101195.72;;;14.91;100.00
55010;BME280;40903;51.638;7.528;2023-05-23T05:43:27;101196.00;;;14.90;100.00
55010;BME280;40903;51.638;7.528;2023-05-23T05:45:52;101199.66;;;14.85;100.00
55010;BME280;40903;51.638;7.528;2023-05-23T05:48:18;101200.50;;;14.86;100.00
55010;BME280;40903;51.638;7.528;2023-05-23T05:50:43;101200.00;;;14.84;100.00
55010;BME280;40903;51.638;7.528;2023-05-23T05:53:10;101195.63;;;14.83;100.00
55010;BME280;40903;51.638;7.528;2023-05-23T05:55:36;101203.53;;;14.84;100.00
55010;BME280;40903;51.638;7.528;2023-05-23T05:58:02;101210.88;;;14.89;100.00
55010;BME280;40903;51.638;7.528;2023-05-23T06:00:27;101214.22;;;14.86;100.00
55010;BME280;40903;51.638;7.528;2023-05-23T06:02:53;101220.84;;;14.85;100.00
55010;BME280;40903;51.638;7.528;2023-05-23T06:05:22;101224.22;;;14.82;100.00
55010;BME280;40903;51.638;7.528;2023-05-23T06:07:48;101217.09;;;14.81;100.00
55010;BME280;40903;51.638;7.528;2023-05-23T06:10:14;101225.13;;;14.77;100.00
55010;BME280;40903;51.638;7.528;2023-05-23T06:12:39;101231.31;;;14.69;100.00
55010;BME280;40903;51.638;7.528;2023-05-23T06:15:05;101225.03;;;14.69;100.00
55010;BME280;40903;51.638;7.528;2023-05-23T06:17:31;101237.91;;;14.68;100.00
55010;BME280;40903;51.638;7.528;2023-05-23T06:19:56;101224.69;;;14.70;100.00
55010;BME280;40903;51.638;7.528;2023-05-23T06:22:21;101230.19;;;14.70;100.00
55010;BME280;40903;51.638;7.528;2023-05-23T06:24:46;101226.94;;;14.68;100.00
55010;BME280;40903;51.638;7.528;2023-05-23T06:27:12;101237.91;;;14.68;100.00
55010;BME280;40903;51.638;7.528;2023-05-23T06:29:38;101241.16;;;14.70;100.00
55010;BME280;40903;51.638;7.528;2023-05-23T06:32:04;101239.53;;;14.69;100.00
55010;BME280;40903;51.638;7.528;2023-05-23T06:34:29;101245.66;;;14.66;100.00
55010;BME280;40903;51.638;7.528;2023-05-23T06:36:54;101241.78;;;14.67;100.00
55010;BME280;40903;51.638;7.528;2023-05-23T06:39:20;101238.03;;;14.63;100.00
55010;BME280;40903;51.638;7.528;2023-05-23T06:41:46;101246.88;;;14.60;100.00
55010;BME280;40903;51.638;7.528;2023-05-23T06:44:12;101254.59;;;14.58;100.00
55010;BME280;40903;51.638;7.528;2023-05-23T06:46:37;101255.63;;;14.62;100.00
55010;BME280;40903;51.638;7.528;2023-05-23T06:49:02;101253.78;;;14.58;100.00
55010;BME280;40903;51.638;7.528;2023-05-23T06:51:28;101259.56;;;14.56;100.00
55010;BME280;40903;51.638;7.528;2023-05-23T06:53:53;101263.13;;;14.57;100.00
55010;BME280;40903;51.638;7.528;2023-05-23T06:56:21;101267.28;;;14.54;100.00
55010;BME280;40903;51.638;7.528;2023-05-23T06:58:46;101271.16;;;14.53;100.00
55010;BME280;40903;51.638;7.528;2023-05-23T07:01:11;101279.88;;;14.55;100.00
55010;BME280;40903;51.638;7.528;2023-05-23T07:03:37;101283.25;;;14.52;100.00
55010;BME280;40903;51.638;7.528;2023-05-23T07:06:06;101281.09;;;14.49;100.00
55010;BME280;40903;51.638;7.528;2023-05-23T07:08:31;101294.09;;;14.44;100.00
55010;BME280;40903;51.638;7.528;2023-05-23T07:10:56;101294.19;;;14.39;100.00
55010;BME280;40903;51.638;7.528;2023-05-23T07:13:22;101297.75;;;14.39;100.00
55010;BME280;40903;51.638;7.528;2023-05-23T07:15:47;101292.78;;;14.41;100.00
55010;BME280;40903;51.638;7.528;2023-05-23T07:18:13;101296.94;;;14.39;100.00
55010;BME280;40903;51.638;7.528;2023-05-23T07:20:38;101301.09;;;14.36;100.00
55010;BME280;40903;51.638;7.528;2023-05-23T07:23:03;101296.50;;;14.32;100.00
55010;BME280;40903;51.638;7.528;2023-05-23T07:25:29;101303.13;;;14.31;100.00
55010;BME280;40903;51.638;7.528;2023-05-23T07:27:54;101317.16;;;14.29;100.00
55010;BME280;40903;51.638;7.528;2023-05-23T07:30:20;101319.78;;;14.34;100.00
55010;BME280;40903;51.638;7.528;2023-05-23T07:32:47;101317.78;;;14.40;100.00
55010;BME280;40903;51.638;7.528;2023-05-23T07:35:14;101316.66;;;14.41;100.00
55010;BME280;40903;51.638;7.528;2023-05-23T07:37:39;101319.13;;;14.42;100.00
55010;BME280;40903;51.638;7.528;2023-05-23T07:40:05;101317.19;;;14.43;100.00
55010;BME280;40903;51.638;7.528;2023-05-23T07:42:33;101320.44;;;14.45;100.00
55010;BME280;40903;51.638;7.528;2023-05-23T07:44:58;101324.19;;;14.49;100.00
55010;BME280;40903;51.638;7.528;2023-05-23T07:47:23;101318.69;;;14.49;100.00
55010;BME280;40903;51.638;7.528;2023-05-23T07:49:49;101326.88;;;14.54;100.00
55010;BME280;40903;51.638;7.528;2023-05-23T07:52:16;101344.44;;;14.53;100.00
55010;BME280;40903;51.638;7.528;2023-05-23T07:54:41;101338.34;;;14.56;100.00
55010;BME280;40903;51.638;7.528;2023-05-23T07:57:07;101329.59;;;14.54;100.00
55010;BME280;40903;51.638;7.528;2023-05-23T07:59:33;101335.31;;;14.57;100.00
55010;BME280;40903;51.638;7.528;2023-05-23T08:01:59;101350.34;;;14.60;100.00
55010;BME280;40903;51.638;7.528;2023-05-23T08:04:24;101340.19;;;14.60;100.00
55010;BME280;40903;51.638;7.528;2023-05-23T08:06:49;101341.59;;;14.58;100.00
55010;BME280;40903;51.638;7.528;2023-05-23T08:09:15;101344.34;;;14.58;100.00
55010;BME280;40903;51.638;7.528;2023-05-23T08:11:40;101354.22;;;14.59;100.00
55010;BME280;40903;51.638;7.528;2023-05-23T08:14:05;101348.72;;;14.59;100.00
55010;BME280;40903;51.638;7.528;2023-05-23T08:16:31;101359.72;;;14.59;100.00
55010;BME280;40903;51.638;7.528;2023-05-23T08:18:56;101366.81;;;14.60;100.00
55010;BME280;40903;51.638;7.528;2023-05-23T08:21:22;101373.75;;;14.57;100.00
55010;BME280;40903;51.638;7.528;2023-05-23T08:23:48;101361.44;;;14.55;100.00
55010;BME280;40903;51.638;7.528;2023-05-23T08:26:13;101365.28;;;14.54;100.00
55010;BME280;40903;51.638;7.528;2023-05-23T08:28:39;101375.75;;;14.52;100.00
55010;BME280;40903;51.638;7.528;2023-05-23T08:31:05;101376.34;;;14.49;100.00
55010;BME280;40903;51.638;7.528;2023-05-23T08:33:31;101379.63;;;14.51;100.00
55010;BME280;40903;51.638;7.528;2023-05-23T08:35:56;101383.16;;;14.51;100.00
55010;BME280;40903;51.638;7.528;2023-05-23T08:38:22;101377.69;;;14.51;100.00
55010;BME280;40903;51.638;7.528;2023-05-23T08:40:50;101384.28;;;14.50;100.00
55010;BME280;40903;51.638;7.528;2023-05-23T08:43:18;101385.31;;;14.54;100.00
55010;BME280;40903;51.638;7.528;2023-05-23T08:45:44;101386.88;;;14.60;100.00
55010;BME280;40903;51.638;7.528;2023-05-23T08:48:12;101389.72;;;14.69;100.00
55010;BME280;40903;51.638;7.528;2023-05-23T08:50:40;101395.34;;;14.77;100.00
55010;BME280;40903;51.638;7.528;2023-05-23T08:53:08;101397.72;;;14.84;100.00
55010;BME280;40903;51.638;7.528;2023-05-23T08:55:35;101395.69;;;14.89;100.00
55010;BME280;40903;51.638;7.528;2023-05-23T08:58:02;101400.75;;;14.82;100.00
55010;BME280;40903;51.638;7.528;2023-05-23T09:00:28;101402.69;;;14.82;100.00
55010;BME280;40903;51.638;7.528;2023-05-23T09:02:53;101410.09;;;14.81;100.00
55010;BME280;40903;51.638;7.528;2023-05-23T09:05:20;101415.91;;;14.80;100.00
55010;BME280;40903;51.638;7.528;2023-05-23T09:07:46;101413.66;;;14.82;100.00
55010;BME280;40903;51.638;7.528;2023-05-23T09:10:12;101420.47;;;14.84;100.00
55010;BME280;40903;51.638;7.528;2023-05-23T09:12:38;101418.22;;;14.73;100.00
55010;BME280;40903;51.638;7.528;2023-05-23T09:15:07;101427.72;;;14.62;100.00
55010;BME280;40903;51.638;7.528;2023-05-23T09:17:33;101423.09;;;14.44;100.00
55010;BME280;40903;51.638;7.528;2023-05-23T09:20:00;101429.56;;;14.34;100.00
55010;BME280;40903;51.638;7.528;2023-05-23T09:22:26;101434.28;;;14.29;100.00
55010;BME280;40903;51.638;7.528;2023-05-23T09:24:54;101431.41;;;14.20;100.00
55010;BME280;40903;51.638;7.528;2023-05-23T09:27:19;101435.53;;;14.18;100.00
55010;BME280;40903;51.638;7.528;2023-05-23T09:29:45;101451.22;;;14.17;100.00
55010;BME280;40903;51.638;7.528;2023-05-23T09:32:14;101449.41;;;14.08;100.00
55010;BME280;40903;51.638;7.528;2023-05-23T09:35:01;101449.06;;;14.09;100.00
55010;BME280;40903;51.638;7.528;2023-05-23T09:37:33;101446.34;;;14.09;100.00
55010;BME280;40903;51.638;7.528;2023-05-23T09:39:59;101461.34;;;14.17;100.00
55010;BME280;40903;51.638;7.528;2023-05-23T09:42:31;101454.97;;;14.21;100.00
55010;BME280;40903;51.638;7.528;2023-05-23T09:44:57;101457.94;;;14.25;100.00
55010;BME280;40903;51.638;7.528;2023-05-23T09:47:23;101460.94;;;14.28;100.00
55010;BME280;40903;51.638;7.528;2023-05-23T09:49:48;101465.59;;;14.28;100.00
55010;BME280;40903;51.638;7.528;2023-05-23T09:52:15;101467.53;;;14.27;100.00
55010;BME280;40903;51.638;7.528;2023-05-23T09:54:40;101473.66;;;14.19;100.00
55010;BME280;40903;51.638;7.528;2023-05-23T09:57:09;101481.25;;;14.04;100.00
55010;BME280;40903;51.638;7.528;2023-05-23T09:59:38;101486.44;;;14.05;100.00
55010;BME280;40903;51.638;7.528;2023-05-23T10:02:06;101487.28;;;14.06;100.00
55010;BME280;40903;51.638;7.528;2023-05-23T10:04:34;101477.47;;;14.00;100.00
55010;BME280;40903;51.638;7.528;2023-05-23T10:07:12;101484.13;;;13.94;100.00
55010;BME280;40903;51.638;7.528;2023-05-23T10:09:41;101472.66;;;13.92;100.00
55010;BME280;40903;51.638;7.528;2023-05-23T10:14:57;101482.16;;;13.99;100.00
55010;BME280;40903;51.638;7.528;2023-05-23T10:17:31;101491.50;;;13.98;100.00
55010;BME280;40903;51.638;7.528;2023-05-23T10:20:09;101486.13;;;13.88;100.00
55010;BME280;40903;51.638;7.528;2023-05-23T10:22:36;101486.13;;;13.88;100.00
55010;BME280;40903;51.638;7.528;2023-05-23T10:25:03;101483.03;;;13.95;100.00
55010;BME280;40903;51.638;7.528;2023-05-23T10:27:30;101487.84;;;14.03;100.00
55010;BME280;40903;51.638;7.528;2023-05-23T10:29:56;101477.03;;;14.11;100.00
55010;BME280;40903;51.638;7.528;2023-05-23T10:32:22;101484.50;;;14.29;100.00
55010;BME280;40903;51.638;7.528;2023-05-23T10:35:01;101483.31;;;14.54;100.00
55010;BME280;40903;51.638;7.528;2023-05-23T10:37:34;101480.25;;;14.74;96.11
55010;BME280;40903;51.638;7.528;2023-05-23T10:40:20;101481.69;;;15.03;97.36
55010;BME280;40903;51.638;7.528;2023-05-23T10:43:21;101476.78;;;15.46;94.13
55010;BME280;40903;51.638;7.528;2023-05-23T10:45:44;101478.09;;;16.15;89.48
55010;BME280;40903;51.638;7.528;2023-05-23T10:48:43;101473.34;;;16.78;82.90
55010;BME280;40903;51.638;7.528;2023-05-23T10:51:12;101474.94;;;17.23;81.79
55010;BME280;40903;51.638;7.528;2023-05-23T10:53:52;101479.59;;;17.45;79.20
55010;BME280;40903;51.638;7.528;2023-05-23T10:56:20;101487.63;;;17.33;73.85
55010;BME280;40903;51.638;7.528;2023-05-23T10:58:51;101483.69;;;17.25;73.94
55010;BME280;40903;51.638;7.528;2023-05-23T11:01:18;101487.78;;;17.06;75.39
55010;BME280;40903;51.638;7.528;2023-05-23T11:06:28;101500.38;;;16.76;74.02
55010;BME280;40903;51.638;7.528;2023-05-23T11:09:10;101503.00;;;16.81;74.49
55010;BME280;40903;51.638;7.528;2023-05-23T11:12:02;101506.66;;;16.90;75.94
55010;BME280;40903;51.638;7.528;2023-05-23T11:16:58;101520.03;;;16.61;72.36
55010;BME280;40903;51.638;7.528;2023-05-23T11:19:26;101517.88;;;16.58;71.32
55010;BME280;40903;51.638;7.528;2023-05-23T11:22:02;101514.81;;;16.60;71.92
55010;BME280;40903;51.638;7.528;2023-05-23T11:24:50;101518.09;;;16.84;75.34
55010;BME280;40903;51.638;7.528;2023-05-23T11:27:16;101530.56;;;16.81;69.63
55010;BME280;40903;51.638;7.528;2023-05-23T11:29:55;101523.28;;;16.85;71.54
55010;BME280;40903;51.638;7.528;2023-05-23T11:32:20;101520.84;;;17.06;70.63
55010;BME280;40903;51.638;7.528;2023-05-23T11:34:45;101512.25;;;17.29;71.09
55010;BME280;40903;51.638;7.528;2023-05-23T11:37:11;101520.03;;;17.27;66.82
55010;BME280;40903;51.638;7.528;2023-05-23T11:39:37;101522.09;;;17.44;72.65
55010;BME280;40903;51.638;7.528;2023-05-23T11:42:03;101523.88;;;17.48;70.69
55010;BME280;40903;51.638;7.528;2023-05-23T11:44:28;101528.97;;;17.55;70.26
55010;BME280;40903;51.638;7.528;2023-05-23T11:47:01;101527.66;;;17.52;71.44
55010;BME280;40903;51.638;7.528;2023-05-23T11:49:30;101532.53;;;17.55;71.63
55010;BME280;40903;51.638;7.528;2023-05-23T11:51:57;101537.19;;;17.46;69.35
55010;BME280;40903;51.638;7.528;2023-05-23T11:54:25;101530.81;;;17.15;68.69
55010;BME280;40903;51.638;7.528;2023-05-23T11:56:51;101541.34;;;17.13;72.03
55010;BME280;40903;51.638;7.528;2023-05-23T11:59:17;101550.75;;;16.90;71.16
55010;BME280;40903;51.638;7.528;2023-05-23T12:01:42;101542.53;;;16.99;71.33
55010;BME280;40903;51.638;7.528;2023-05-23T12:04:09;101550.47;;;17.00;70.49
55010;BME280;40903;51.638;7.528;2023-05-23T12:06:39;101544.38;;;17.12;69.67
55010;BME280;40903;51.638;7.528;2023-05-23T12:09:05;101545.66;;;17.28;71.78
55010;BME280;40903;51.638;7.528;2023-05-23T12:11:32;101550.41;;;17.58;67.30
55010;BME280;40903;51.638;7.528;2023-05-23T12:13:57;101545.09;;;17.70;68.74
55010;BME280;40903;51.638;7.528;2023-05-23T12:16:27;101548.69;;;17.70;65.34
55010;BME280;40903;51.638;7.528;2023-05-23T12:18:53;101560.84;;;17.69;67.00
55010;BME280;40903;51.638;7.528;2023-05-23T12:21:18;101557.91;;;17.96;63.57
55010;BME280;40903;51.638;7.528;2023-05-23T12:23:43;101539.56;;;18.56;69.76
55010;BME280;40903;51.638;7.528;2023-05-23T12:26:09;101560.38;;;18.87;63.32
55010;BME280;40903;51.638;7.528;2023-05-23T12:28:36;101564.44;;;19.07;59.51
55010;BME280;40903;51.638;7.528;2023-05-23T12:31:20;101557.59;;;19.04;60.47
55010;BME280;40903;51.638;7.528;2023-05-23T12:33:47;101550.75;;;19.44;58.58
55010;BME280;40903;51.638;7.528;2023-05-23T12:36:23;101546.06;;;19.82;54.89
55010;BME280;40903;51.638;7.528;2023-05-23T12:38:48;101548.00;;;20.27;56.34
55010;BME280;40903;51.638;7.528;2023-05-23T12:41:18;101549.47;;;20.74;54.38
55010;BME280;40903;51.638;7.528;2023-05-23T12:43:54;101549.41;;;21.24;49.20
55010;BME280;40903;51.638;7.528;2023-05-23T12:46:21;101549.13;;;21.17;50.26
55010;BME280;40903;51.638;7.528;2023-05-23T12:48:46;101558.50;;;21.12;49.67
55010;BME280;40903;51.638;7.528;2023-05-23T12:51:15;101552.00;;;20.67;49.59
55010;BME280;40903;51.638;7.528;2023-05-23T12:53:41;101553.22;;;20.49;48.49
55010;BME280;40903;51.638;7.528;2023-05-23T12:56:06;101551.16;;;20.17;52.17
55010;BME280;40903;51.638;7.528;2023-05-23T12:58:31;101555.09;;;20.08;51.92